Portada
METAR-TAF:

METAR-TAF

Aeropuertos :

Kwajalein, Islas Marshall

latitud: 08-43N, longitud: 167-44E, altitud: 3 m

Observación

El informe se hizo hace 27 minutos, a las 16:00 UTC
Viento 7 kt del noreste
Temperatura 27°C
Humedad 84%
Presión 1012 hPa
Visibilidad: 16.1 km
Cielo despejado

METAR: PKWA 271600Z AUTO 04007KT 10SM CLR 27/24 A2988 RMK AO2 T02730236

Hora: 04:27 (16:27 UTC)

Pronóstico

El informe se hizo hace 5 horas y 7 minutos, a las 11:20 UTC
Pronóstico válido del 27 a las 12 UTC al 28 a las 12 UTC
Viento 10 kt del este-noreste
Visibilidad: 10 km
Nubes dispersas a una altura de 4000 ft

TAF: PKWA 271120Z 2712/2812 07010KT P6SM SCT040

Observaciones y pronósticos meteorológicos de más de 4000 aeropuertos (mensajes METAR y TAF).

Los puntos amarillos y rojos representan las estaciones disponibles.

Ponga el ratón en el punto deseado para ver el nombre de la estación.

Haga clic para ver las observaciones y los pronósticos meteorológicos.

Para cambiar el mapa : haga clic en los botones verdes con una cruz de color negro para hacer un zoom, en el botón verde con un guión para alejar o en las flechas verdes para mapas adyacentes.


METAR-TAF: